Time;durP1;ratioP1;P1;durP2;ratioP2;P2;SDS_P1;SDS_P2;PMS_P1;PMS_P2;Temp;Humidity;BMP_temperature;BMP_pressure;BME280_temperature;BME280_humidity;BME280_pressure;Samples;Min_cycle;Max_cycle;Signal;HPM_P1;HPM_P2
2023/09/02 00:00:09;;;;;;;1.73;1.57;;;15.50;99.90;;;;;;5022059;28;20452;-63
2023/09/02 00:02:36;;;;;;;8.70;2.17;;;15.50;99.90;;;;;;5012029;28;20466;-63
2023/09/02 00:05:03;;;;;;;2.53;1.80;;;15.40;99.90;;;;;;5023622;28;20468;-63
2023/09/02 00:07:30;;;;;;;6.73;1.37;;;15.40;99.90;;;;;;5016252;28;20932;-63
2023/09/02 00:09:58;;;;;;;1.40;1.30;;;15.40;99.90;;;;;;5016394;28;20451;-63
2023/09/02 00:12:25;;;;;;;2.20;1.60;;;15.40;99.90;;;;;;5024083;28;20469;-63
2023/09/02 00:14:52;;;;;;;3.40;2.07;;;15.40;99.90;;;;;;5012246;28;21273;-63
2023/09/02 00:17:19;;;;;;;1.87;1.60;;;15.30;99.90;;;;;;5020377;28;20994;-63
2023/09/02 00:19:46;;;;;;;2.00;1.60;;;15.30;99.90;;;;;;5019045;28;20540;-63
2023/09/02 00:22:13;;;;;;;8.70;2.10;;;15.30;99.90;;;;;;5028774;28;20564;-63
2023/09/02 00:24:40;;;;;;;7.67;2.23;;;15.30;99.90;;;;;;5029229;28;20500;-63
2023/09/02 00:27:08;;;;;;;1.77;1.57;;;15.20;99.90;;;;;;5028070;28;20489;-63
2023/09/02 00:29:35;;;;;;;2.63;1.93;;;15.20;99.90;;;;;;5028541;28;20449;-63
2023/09/02 00:32:02;;;;;;;5.43;2.37;;;15.20;99.90;;;;;;5027917;28;20997;-63
2023/09/02 00:34:28;;;;;;;3.30;1.93;;;15.10;99.90;;;;;;5028485;28;20469;-63
2023/09/02 00:36:55;;;;;;;3.10;2.00;;;15.10;99.90;;;;;;5028256;28;20441;-63
2023/09/02 00:39:22;;;;;;;4.67;2.00;;;15.10;99.90;;;;;;5028688;28;20454;-63
2023/09/02 00:41:51;;;;;;;4.93;1.97;;;15.00;99.90;;;;;;5028439;28;20541;-63
2023/09/02 00:44:19;;;;;;;2.63;1.83;;;15.00;99.90;;;;;;5028386;28;20487;-63
2023/09/02 00:46:46;;;;;;;6.00;1.93;;;15.00;99.90;;;;;;5027512;28;20452;-63
2023/09/02 00:49:13;;;;;;;8.10;2.47;;;14.90;99.90;;;;;;5028596;28;20457;-63
2023/09/02 00:51:40;;;;;;;5.77;1.83;;;14.90;99.90;;;;;;5028458;28;20962;-63
2023/09/02 00:54:07;;;;;;;2.60;1.67;;;14.90;99.90;;;;;;5028559;28;20546;-63
2023/09/02 00:56:36;;;;;;;5.53;1.93;;;14.80;99.90;;;;;;5027542;28;20453;-63
2023/09/02 00:59:05;;;;;;;3.10;2.77;;;14.80;99.90;;;;;;5028308;28;20459;-63
2023/09/02 01:01:35;;;;;;;3.80;2.00;;;14.80;99.90;;;;;;5028203;28;20444;-63
2023/09/02 01:04:03;;;;;;;2.50;1.73;;;14.70;99.90;;;;;;5028361;28;20473;-62
2023/09/02 01:06:30;;;;;;;4.40;2.00;;;14.70;99.90;;;;;;5027639;28;20477;-63
2023/09/02 01:08:57;;;;;;;3.63;2.90;;;14.60;99.90;;;;;;5028230;28;20488;-63
2023/09/02 01:11:24;;;;;;;2.40;1.90;;;14.60;99.90;;;;;;5028263;28;20452;-63
2023/09/02 01:13:50;;;;;;;4.33;2.50;;;14.60;99.90;;;;;;5027864;28;20475;-63
2023/09/02 01:16:17;;;;;;;2.87;2.53;;;14.60;99.90;;;;;;5027148;28;20456;-62
2023/09/02 01:18:46;;;;;;;3.40;2.10;;;14.60;99.90;;;;;;5028275;28;20548;-63
2023/09/02 01:21:39;;;;;;;1.87;1.67;;;14.60;99.90;;;;;;5028168;28;20457;-63
2023/09/02 01:24:40;;;;;;;2.73;1.67;;;14.50;99.90;;;;;;5028162;28;20473;-63
2023/09/02 01:27:18;;;;;;;8.33;2.60;;;14.50;99.90;;;;;;5027475;28;20488;-63
2023/09/02 01:29:49;;;;;;;3.90;2.33;;;14.50;99.90;;;;;;5028029;28;20533;-62
2023/09/02 01:32:18;;;;;;;3.10;2.20;;;14.50;99.90;;;;;;5026948;28;20551;-63
2023/09/02 01:34:47;;;;;;;3.67;2.00;;;14.40;99.90;;;;;;5028223;28;20465;-63
2023/09/02 01:37:17;;;;;;;6.13;2.20;;;14.40;99.90;;;;;;5027595;28;20449;-63
2023/09/02 01:39:45;;;;;;;5.77;2.53;;;14.40;99.90;;;;;;5028421;28;20882;-63
2023/09/02 01:42:15;;;;;;;4.10;2.57;;;14.40;99.90;;;;;;5029387;28;20588;-63
2023/09/02 01:44:42;;;;;;;2.07;1.77;;;14.40;99.90;;;;;;5031753;28;20455;-63
2023/09/02 01:47:09;;;;;;;2.43;2.23;;;14.30;99.90;;;;;;5030649;28;20458;-63
2023/09/02 01:49:37;;;;;;;2.07;1.97;;;14.30;99.90;;;;;;5031556;28;20449;-63
2023/09/02 01:52:05;;;;;;;2.37;2.03;;;14.30;99.90;;;;;;5031972;28;20475;-63
2023/09/02 01:54:32;;;;;;;4.57;1.80;;;14.20;99.90;;;;;;5031792;28;20453;-63
2023/09/02 01:56:59;;;;;;;2.27;2.07;;;14.20;99.90;;;;;;5030812;28;20456;-63
2023/09/02 01:59:27;;;;;;;3.77;1.80;;;14.20;99.90;;;;;;5031684;28;20560;-63
2023/09/02 02:01:54;;;;;;;5.57;2.30;;;14.20;99.90;;;;;;5031228;28;20453;-63
2023/09/02 02:04:29;;;;;;;3.40;2.30;;;14.20;99.90;;;;;;5031388;28;20528;-63
2023/09/02 02:07:00;;;;;;;7.53;1.83;;;14.10;99.90;;;;;;5030518;28;20451;-63
2023/09/02 02:09:32;;;;;;;2.53;2.20;;;14.10;99.90;;;;;;5031271;28;20823;-63
2023/09/02 02:12:01;;;;;;;3.03;2.20;;;14.10;99.90;;;;;;5031137;28;20852;-62
2023/09/02 02:14:33;;;;;;;3.67;2.30;;;14.00;99.90;;;;;;5031320;28;20448;-63
2023/09/02 02:17:00;;;;;;;1.63;1.53;;;14.00;99.90;;;;;;5030720;28;20451;-63
2023/09/02 02:19:26;;;;;;;6.93;2.93;;;14.00;99.90;;;;;;5031196;28;20525;-62
2023/09/02 02:21:54;;;;;;;6.80;2.40;;;14.00;99.90;;;;;;5031276;28;20536;-63
2023/09/02 02:24:20;;;;;;;2.77;2.53;;;14.00;99.90;;;;;;5031434;28;20457;-62
2023/09/02 02:26:47;;;;;;;2.47;1.93;;;14.00;99.90;;;;;;5030827;28;20473;-63
2023/09/02 02:29:14;;;;;;;2.83;2.30;;;13.90;99.90;;;;;;5031128;28;20488;-62
2023/09/02 02:31:42;;;;;;;5.90;2.60;;;13.90;99.90;;;;;;5031236;28;20831;-63
2023/09/02 02:34:09;;;;;;;5.57;2.77;;;13.90;99.90;;;;;;5029908;28;20943;-63
2023/09/02 02:36:36;;;;;;;1.70;1.60;;;13.90;99.90;;;;;;5030574;28;20449;-62
2023/09/02 02:39:04;;;;;;;5.60;1.83;;;13.90;99.90;;;;;;5031480;28;20450;-63
2023/09/02 02:41:31;;;;;;;2.67;2.23;;;13.90;99.90;;;;;;5031078;28;20457;-63
2023/09/02 02:43:58;;;;;;;3.03;2.73;;;14.00;99.90;;;;;;5030689;28;20486;-62
2023/09/02 02:46:25;;;;;;;2.83;2.53;;;14.00;99.90;;;;;;5029792;28;20536;-63
2023/09/02 02:48:53;;;;;;;2.80;2.60;;;14.00;99.90;;;;;;5030866;28;20488;-63
2023/09/02 02:51:20;;;;;;;3.33;2.77;;;14.10;99.90;;;;;;5031094;28;20459;-63
2023/09/02 02:53:48;;;;;;;6.40;2.47;;;14.10;99.90;;;;;;5030388;28;20560;-62
2023/09/02 02:56:15;;;;;;;3.23;1.87;;;14.10;99.90;;;;;;5030030;28;20507;-63
2023/09/02 02:58:42;;;;;;;3.53;1.67;;;14.10;99.90;;;;;;5030679;28;21224;-63
2023/09/02 03:01:11;;;;;;;2.20;1.57;;;14.20;99.90;;;;;;5030732;28;20449;-62
2023/09/02 03:03:38;;;;;;;3.37;2.30;;;14.20;99.90;;;;;;5030369;28;20477;-63
2023/09/02 03:06:07;;;;;;;1.90;1.47;;;14.20;99.90;;;;;;5029881;28;20456;-63
2023/09/02 03:08:34;;;;;;;2.17;2.07;;;14.30;99.90;;;;;;5030404;28;21236;-63
2023/09/02 03:11:03;;;;;;;1.77;1.67;;;14.30;99.90;;;;;;5030403;28;20528;-63
2023/09/02 03:13:33;;;;;;;2.87;2.40;;;14.30;99.90;;;;;;5027291;28;20481;-63
2023/09/02 03:16:01;;;;;;;1.67;1.57;;;14.30;99.90;;;;;;5029486;28;20458;-63
2023/09/02 03:18:28;;;;;;;2.77;2.57;;;14.40;99.90;;;;;;5030574;28;20565;-63
2023/09/02 03:20:55;;;;;;;2.13;1.93;;;14.40;99.90;;;;;;5029946;28;20540;-62
2023/09/02 03:23:23;;;;;;;2.33;2.13;;;14.50;99.90;;;;;;5029936;28;21009;-63
2023/09/02 03:25:50;;;;;;;4.20;1.90;;;14.50;99.90;;;;;;5029452;28;20450;-63
2023/09/02 03:28:17;;;;;;;3.70;2.60;;;14.50;99.90;;;;;;5029779;28;20491;-62
2023/09/02 03:30:44;;;;;;;3.47;2.47;;;14.50;99.90;;;;;;5027888;28;20545;-63
2023/09/02 03:33:14;;;;;;;4.80;2.33;;;14.60;99.90;;;;;;5016107;28;20993;-63
2023/09/02 03:35:41;;;;;;;2.90;2.70;;;14.60;99.90;;;;;;5011759;28;21196;-62
2023/09/02 03:38:08;;;;;;;6.03;2.10;;;14.60;99.90;;;;;;5008994;28;20459;-63
2023/09/02 03:40:36;;;;;;;2.87;1.83;;;14.60;99.90;;;;;;5022152;28;20526;-63
2023/09/02 03:43:03;;;;;;;2.93;1.70;;;14.60;99.90;;;;;;5029518;28;20483;-63
2023/09/02 03:45:30;;;;;;;2.23;1.83;;;14.70;99.90;;;;;;5029741;28;20878;-62
2023/09/02 03:47:57;;;;;;;3.10;1.80;;;14.70;99.90;;;;;;5025481;28;20482;-63
2023/09/02 03:50:25;;;;;;;1.83;1.70;;;14.70;99.90;;;;;;5009734;28;20453;-63
2023/09/02 03:52:52;;;;;;;5.10;2.03;;;14.70;99.90;;;;;;5009422;28;20470;-63
2023/09/02 03:55:19;;;;;;;3.70;2.00;;;14.70;99.90;;;;;;5009647;28;20457;-63
2023/09/02 03:57:47;;;;;;;2.77;2.57;;;14.70;99.90;;;;;;5008879;28;20563;-62
2023/09/02 04:00:17;;;;;;;3.20;2.73;;;14.70;99.90;;;;;;5009263;28;20481;-63
2023/09/02 04:02:43;;;;;;;3.93;2.27;;;14.80;99.90;;;;;;5009322;28;20473;-62
2023/09/02 04:05:11;;;;;;;4.30;1.93;;;14.80;99.90;;;;;;5012481;28;20520;-63
2023/09/02 04:07:37;;;;;;;3.13;1.90;;;14.80;99.90;;;;;;5018266;28;20469;-63
2023/09/02 04:10:05;;;;;;;4.57;1.60;;;14.90;99.90;;;;;;5008746;28;20474;-62
2023/09/02 04:12:34;;;;;;;1.53;1.43;;;14.80;99.90;;;;;;5008376;28;21001;-63
2023/09/02 04:15:02;;;;;;;6.00;3.53;;;14.90;99.90;;;;;;5009671;28;20788;-63
2023/09/02 04:17:29;;;;;;;2.90;1.70;;;14.90;99.90;;;;;;5008501;28;20458;-63
2023/09/02 04:19:56;;;;;;;1.77;1.67;;;15.00;99.90;;;;;;5008936;28;20485;-63
2023/09/02 04:22:23;;;;;;;2.43;1.77;;;14.90;99.90;;;;;;5009367;28;20470;-63
2023/09/02 04:24:49;;;;;;;2.80;1.77;;;15.00;99.90;;;;;;5008972;28;21030;-63
2023/09/02 04:27:16;;;;;;;1.97;1.73;;;15.00;99.90;;;;;;5008359;28;20457;-63
2023/09/02 04:29:43;;;;;;;4.60;2.20;;;15.00;99.90;;;;;;5008867;28;20573;-63
2023/09/02 04:32:11;;;;;;;4.40;1.80;;;15.00;99.90;;;;;;5007264;28;20906;-63
2023/09/02 04:34:39;;;;;;;4.23;3.07;;;15.00;99.90;;;;;;5008818;28;20453;-63
2023/09/02 04:37:05;;;;;;;4.80;1.70;;;15.10;99.90;;;;;;5008189;28;21018;-63
2023/09/02 04:39:32;;;;;;;1.90;1.80;;;15.10;99.90;;;;;;5009534;28;20530;-63
2023/09/02 04:41:59;;;;;;;3.13;1.90;;;15.20;99.90;;;;;;5009038;28;20450;-63
2023/09/02 04:44:26;;;;;;;2.37;2.13;;;15.10;99.90;;;;;;5009150;28;20899;-63
2023/09/02 04:46:53;;;;;;;1.93;1.73;;;15.10;99.90;;;;;;5007894;28;20450;-62
2023/09/02 04:49:21;;;;;;;5.00;3.13;;;15.20;99.90;;;;;;5008843;28;20485;-63
2023/09/02 04:51:49;;;;;;;4.30;2.13;;;15.20;99.90;;;;;;5008690;28;20540;-62
2023/09/02 04:54:15;;;;;;;4.17;2.20;;;15.20;99.90;;;;;;5008710;28;20456;-62
2023/09/02 04:56:42;;;;;;;2.20;1.90;;;15.20;99.90;;;;;;5008141;28;20451;-62
2023/09/02 04:59:09;;;;;;;2.70;2.33;;;15.30;99.90;;;;;;5008615;28;20481;-62
2023/09/02 05:01:36;;;;;;;3.20;2.87;;;15.30;99.90;;;;;;5008740;28;20460;-62
2023/09/02 05:04:03;;;;;;;2.80;1.83;;;15.30;99.90;;;;;;5008898;28;20476;-63
2023/09/02 05:06:31;;;;;;;2.50;2.30;;;15.30;99.90;;;;;;5007877;28;20961;-62
2023/09/02 05:08:58;;;;;;;3.30;3.00;;;15.40;99.90;;;;;;5008959;28;20483;-62
2023/09/02 05:11:25;;;;;;;2.77;2.57;;;15.40;99.90;;;;;;5008888;28;20454;-62
2023/09/02 05:13:52;;;;;;;4.23;2.20;;;15.40;99.90;;;;;;5008684;28;20471;-62
2023/09/02 05:16:19;;;;;;;3.53;2.00;;;15.40;99.90;;;;;;5009877;28;20839;-63
2023/09/02 05:18:46;;;;;;;2.80;2.20;;;15.50;99.90;;;;;;5012497;28;20877;-62
2023/09/02 05:21:12;;;;;;;2.77;2.53;;;15.50;99.90;;;;;;5012221;28;20942;-63
2023/09/02 05:23:40;;;;;;;2.77;2.57;;;15.50;99.90;;;;;;5011988;28;20556;-63
2023/09/02 05:26:07;;;;;;;2.40;2.20;;;15.60;99.90;;;;;;5011216;28;20458;-63
2023/09/02 05:28:34;;;;;;;2.77;2.57;;;15.60;99.90;;;;;;5012041;28;20876;-63
2023/09/02 05:31:01;;;;;;;3.00;2.53;;;15.60;99.90;;;;;;5012010;28;20453;-63
2023/09/02 05:33:28;;;;;;;2.73;2.53;;;15.70;99.90;;;;;;5010251;28;20478;-63
2023/09/02 05:35:55;;;;;;;2.50;2.30;;;15.70;99.90;;;;;;5011668;28;20445;-63
2023/09/02 05:38:22;;;;;;;5.00;2.13;;;15.70;99.90;;;;;;5011939;28;20480;-63
2023/09/02 05:40:50;;;;;;;5.63;3.20;;;15.80;99.90;;;;;;5012191;28;20901;-63
2023/09/02 05:43:17;;;;;;;2.87;2.67;;;15.80;99.90;;;;;;5011762;28;20923;-63
2023/09/02 05:45:44;;;;;;;21.90;3.60;;;15.90;99.90;;;;;;5011801;28;20454;-63
2023/09/02 05:48:11;;;;;;;3.03;2.70;;;15.90;99.90;;;;;;5010976;28;20490;-63
2023/09/02 05:50:38;;;;;;;2.73;2.63;;;15.90;99.90;;;;;;5011921;28;20450;-63
2023/09/02 05:53:05;;;;;;;2.60;2.40;;;16.00;99.90;;;;;;5011581;28;20474;-63
2023/09/02 05:55:32;;;;;;;5.60;3.10;;;16.00;99.90;;;;;;5011384;28;20454;-62
2023/09/02 05:58:00;;;;;;;2.90;2.50;;;16.10;99.90;;;;;;5010842;28;20801;-63
2023/09/02 06:00:27;;;;;;;3.90;3.57;;;16.10;99.90;;;;;;5011486;28;20938;-63
2023/09/02 06:02:54;;;;;;;4.87;2.60;;;16.10;99.90;;;;;;5011422;28;20552;-62
2023/09/02 06:05:21;;;;;;;3.53;3.23;;;16.20;99.90;;;;;;5011437;28;20541;-63
2023/09/02 06:07:48;;;;;;;5.00;3.03;;;16.20;99.90;;;;;;5010703;28;20478;-63
2023/09/02 06:10:14;;;;;;;3.20;3.00;;;16.30;99.90;;;;;;5011331;28;20525;-63
2023/09/02 06:12:41;;;;;;;3.53;3.30;;;16.30;99.90;;;;;;5011000;28;20557;-63
2023/09/02 06:15:11;;;;;;;5.30;3.37;;;16.30;99.90;;;;;;5011059;28;20446;-63
2023/09/02 06:17:38;;;;;;;3.77;3.50;;;16.40;99.90;;;;;;5010249;28;20449;-63
2023/09/02 06:20:05;;;;;;;5.17;4.30;;;16.50;99.90;;;;;;5010827;28;20504;-63
2023/09/02 06:22:32;;;;;;;6.27;3.90;;;16.50;99.90;;;;;;5010669;28;20554;-63
2023/09/02 06:25:00;;;;;;;4.23;3.83;;;16.50;99.90;;;;;;5010967;28;20451;-63
2023/09/02 06:27:27;;;;;;;4.27;3.97;;;16.60;99.90;;;;;;5009598;28;20455;-63
2023/09/02 06:29:53;;;;;;;3.20;3.00;;;16.60;99.90;;;;;;5010783;28;20485;-63
2023/09/02 06:32:21;;;;;;;3.67;3.33;;;16.70;99.90;;;;;;5009119;28;20823;-63
2023/09/02 06:34:48;;;;;;;3.60;3.30;;;16.70;99.90;;;;;;5010515;28;20457;-63
2023/09/02 06:37:15;;;;;;;3.70;3.40;;;16.70;99.90;;;;;;5009625;28;20545;-63
2023/09/02 06:39:42;;;;;;;2.37;2.20;;;16.70;99.90;;;;;;5010489;28;20577;-63
2023/09/02 06:42:09;;;;;;;2.63;2.47;;;16.70;99.90;;;;;;5010277;28;21362;-64
2023/09/02 06:44:35;;;;;;;2.57;2.47;;;16.80;99.90;;;;;;5010444;28;20575;-63
2023/09/02 06:47:03;;;;;;;2.40;2.20;;;16.80;99.90;;;;;;5009818;28;20566;-63
2023/09/02 06:49:33;;;;;;;3.23;2.97;;;16.90;99.90;;;;;;5009937;28;20501;-63
2023/09/02 06:52:00;;;;;;;2.80;2.60;;;16.90;99.90;;;;;;5010522;28;20473;-63
2023/09/02 06:54:26;;;;;;;2.63;2.43;;;16.90;99.90;;;;;;5010112;28;20450;-63
2023/09/02 06:56:53;;;;;;;2.67;2.57;;;17.00;99.90;;;;;;5009443;28;20455;-63
2023/09/02 06:59:20;;;;;;;2.93;2.73;;;16.90;99.90;;;;;;5010527;28;20443;-63
2023/09/02 07:01:47;;;;;;;2.83;2.63;;;17.00;99.90;;;;;;5010164;28;20455;-63
2023/09/02 07:04:14;;;;;;;2.80;2.60;;;17.00;99.90;;;;;;5009949;28;20449;-63
2023/09/02 07:06:42;;;;;;;2.70;2.00;;;17.00;99.90;;;;;;5009253;28;20550;-63
2023/09/02 07:09:10;;;;;;;2.30;2.20;;;17.00;99.90;;;;;;5009824;28;20491;-64
2023/09/02 07:11:37;;;;;;;2.73;2.53;;;17.00;99.90;;;;;;5009775;28;20452;-63
2023/09/02 07:14:04;;;;;;;3.20;3.00;;;17.10;99.90;;;;;;5010055;28;20479;-64
2023/09/02 07:16:30;;;;;;;2.90;2.70;;;17.10;99.90;;;;;;5009260;28;20840;-63
2023/09/02 07:18:58;;;;;;;3.90;3.60;;;17.20;99.90;;;;;;5009865;28;20448;-63
2023/09/02 07:21:25;;;;;;;3.00;2.80;;;17.20;99.90;;;;;;5010128;28;20471;-63
2023/09/02 07:23:54;;;;;;;2.33;2.13;;;17.20;99.90;;;;;;5009924;28;20854;-64
2023/09/02 07:26:20;;;;;;;3.00;2.90;;;17.30;99.90;;;;;;5009219;28;20543;-63
2023/09/02 07:28:47;;;;;;;2.37;2.27;;;17.30;99.90;;;;;;5010091;28;20618;-63
2023/09/02 07:31:14;;;;;;;2.67;2.47;;;17.30;99.90;;;;;;5009919;28;20886;-63
2023/09/02 07:33:42;;;;;;;3.83;3.53;;;17.40;99.90;;;;;;5007729;28;20482;-64
2023/09/02 07:36:09;;;;;;;3.40;3.03;;;17.40;99.90;;;;;;5008648;28;20537;-63
2023/09/02 07:38:37;;;;;;;2.30;2.20;;;17.40;99.90;;;;;;5009373;28;20543;-63
2023/09/02 07:41:05;;;;;;;2.77;2.50;;;17.50;99.90;;;;;;5009176;28;20451;-63
2023/09/02 07:43:32;;;;;;;3.73;3.53;;;17.60;99.90;;;;;;5009339;28;20602;-63
2023/09/02 07:45:59;;;;;;;2.83;2.63;;;17.60;99.90;;;;;;5008694;28;20455;-64
2023/09/02 07:48:26;;;;;;;2.97;2.77;;;17.60;99.90;;;;;;5009402;28;20459;-64
2023/09/02 07:50:53;;;;;;;3.17;2.87;;;17.70;99.90;;;;;;5009110;28;20492;-63
2023/09/02 07:53:20;;;;;;;2.40;2.17;;;17.70;99.90;;;;;;5009548;28;20484;-64
2023/09/02 07:55:47;;;;;;;3.23;2.63;;;17.70;99.90;;;;;;5009504;28;20452;-64
2023/09/02 07:58:15;;;;;;;2.30;2.20;;;17.70;99.90;;;;;;5008665;28;20458;-63
2023/09/02 08:00:42;;;;;;;2.67;2.57;;;17.80;99.90;;;;;;5009057;28;20455;-63
2023/09/02 08:03:09;;;;;;;3.10;2.80;;;17.80;99.90;;;;;;5008834;28;20482;-64
2023/09/02 08:05:39;;;;;;;3.80;3.50;;;17.80;99.90;;;;;;5008992;28;20576;-63
2023/09/02 08:08:07;;;;;;;2.70;2.60;;;17.80;99.90;;;;;;5008522;28;20562;-64
2023/09/02 08:10:33;;;;;;;3.30;3.10;;;17.80;99.90;;;;;;5008632;28;20499;-63
2023/09/02 08:13:00;;;;;;;2.63;2.43;;;17.90;99.90;;;;;;5008893;28;20471;-63
2023/09/02 08:15:29;;;;;;;2.57;2.37;;;18.00;99.90;;;;;;5008716;28;20453;-63
2023/09/02 08:17:55;;;;;;;6.90;2.10;;;18.00;99.90;;;;;;5007990;28;20463;-63
2023/09/02 08:20:23;;;;;;;2.20;2.10;;;18.00;99.90;;;;;;5009120;28;20792;-63
2023/09/02 08:22:49;;;;;;;2.80;2.60;;;18.00;99.90;;;;;;5008752;28;20991;-63
2023/09/02 08:25:16;;;;;;;2.20;2.00;;;18.00;99.90;;;;;;5009228;28;20453;-63
2023/09/02 08:27:45;;;;;;;2.23;2.03;;;18.10;99.90;;;;;;5008313;28;20813;-63
2023/09/02 08:30:13;;;;;;;2.33;2.13;;;18.10;99.90;;;;;;5008914;28;20867;-64
2023/09/02 08:32:42;;;;;;;2.17;2.03;;;18.20;99.90;;;;;;5007086;28;21211;-63
2023/09/02 08:35:12;;;;;;;1.47;1.47;;;18.30;99.90;;;;;;5009105;28;20927;-64
2023/09/02 08:37:38;;;;;;;2.10;2.00;;;18.40;99.90;;;;;;5008125;28;20467;-64
2023/09/02 08:40:06;;;;;;;1.70;1.60;;;18.40;99.90;;;;;;5008910;28;20953;-64
2023/09/02 08:42:36;;;;;;;1.90;1.80;;;18.40;99.90;;;;;;5008476;28;20567;-64
2023/09/02 08:45:06;;;;;;;1.80;1.70;;;18.50;99.90;;;;;;5008965;28;20484;-64
2023/09/02 08:47:35;;;;;;;1.93;1.83;;;18.50;99.90;;;;;;5008212;28;20460;-64
2023/09/02 08:50:04;;;;;;;1.97;1.77;;;18.50;99.90;;;;;;5009064;28;20489;-64
2023/09/02 08:52:31;;;;;;;1.93;1.83;;;18.50;99.90;;;;;;5012748;28;20469;-64
2023/09/02 08:54:59;;;;;;;2.03;1.93;;;18.60;99.90;;;;;;5012936;28;20453;-64
2023/09/02 08:57:26;;;;;;;1.83;1.73;;;18.60;99.90;;;;;;5012537;28;20452;-64
2023/09/02 08:59:53;;;;;;;3.47;2.20;;;18.60;99.90;;;;;;5012504;28;20455;-64
2023/09/02 09:02:21;;;;;;;1.40;1.30;;;18.70;99.90;;;;;;5007380;28;20481;-64
2023/09/02 09:04:49;;;;;;;1.70;1.60;;;18.70;99.90;;;;;;4991984;28;20889;-64
2023/09/02 09:07:18;;;;;;;1.70;1.60;;;18.70;99.90;;;;;;4991693;28;20458;-64
2023/09/02 09:09:47;;;;;;;1.80;1.70;;;18.80;99.90;;;;;;4992822;28;20496;-64
2023/09/02 09:12:14;;;;;;;1.57;1.57;;;18.90;99.90;;;;;;4992554;28;20485;-64
2023/09/02 09:14:47;;;;;;;1.30;1.20;;;18.90;99.90;;;;;;4992066;28;20460;-63
2023/09/02 09:17:14;;;;;;;2.00;1.80;;;18.90;99.90;;;;;;4991557;28;20928;-64
2023/09/02 09:19:41;;;;;;;1.70;1.60;;;19.00;99.90;;;;;;4992165;28;21150;-64
2023/09/02 09:22:08;;;;;;;1.77;1.67;;;19.00;99.90;;;;;;4991608;28;20556;-64
2023/09/02 09:24:36;;;;;;;1.90;1.80;;;19.00;99.90;;;;;;4991894;28;20462;-64
2023/09/02 09:27:06;;;;;;;1.87;1.77;;;19.10;99.90;;;;;;4991225;28;20464;-64
2023/09/02 09:29:40;;;;;;;1.60;1.50;;;19.20;99.90;;;;;;4991615;28;20462;-64
2023/09/02 09:32:12;;;;;;;1.60;1.50;;;19.30;99.90;;;;;;4990048;28;20472;-64
2023/09/02 09:34:41;;;;;;;1.80;1.70;;;19.30;99.90;;;;;;4991726;28;21233;-64
2023/09/02 09:37:09;;;;;;;2.60;1.60;;;19.30;99.90;;;;;;4991126;28;20492;-64
2023/09/02 09:39:42;;;;;;;1.90;1.80;;;19.40;99.90;;;;;;4991638;28;20524;-64
2023/09/02 09:42:09;;;;;;;1.90;1.57;;;19.50;99.90;;;;;;4991271;28;20565;-63
2023/09/02 09:44:48;;;;;;;1.27;1.27;;;19.50;99.90;;;;;;4991196;28;20549;-64
2023/09/02 09:47:14;;;;;;;1.70;1.60;;;19.50;99.90;;;;;;4991419;28;20544;-63
2023/09/02 09:49:41;;;;;;;2.00;1.90;;;19.50;99.90;;;;;;4991802;28;20453;-63
2023/09/02 09:52:10;;;;;;;1.70;1.60;;;19.60;99.90;;;;;;4991888;28;20564;-64
2023/09/02 09:54:38;;;;;;;1.60;1.50;;;19.70;99.90;;;;;;4991195;28;20461;-64
2023/09/02 09:57:09;;;;;;;2.00;1.80;;;19.80;99.90;;;;;;4990595;28;20491;-64
2023/09/02 09:59:36;;;;;;;1.70;1.60;;;19.90;99.90;;;;;;4991515;28;20542;-64
2023/09/02 10:02:04;;;;;;;1.73;1.50;;;20.00;99.90;;;;;;4990396;28;20905;-64
2023/09/02 10:04:31;;;;;;;1.40;1.30;;;20.10;99.90;;;;;;4991041;28;20459;-64
2023/09/02 10:06:59;;;;;;;2.00;1.43;;;20.10;99.90;;;;;;4990294;28;20966;-64
2023/09/02 10:09:41;;;;;;;1.83;1.30;;;20.30;99.90;;;;;;4991283;28;20461;-64
2023/09/02 10:12:13;;;;;;;1.37;1.30;;;20.40;99.90;;;;;;4991105;28;20462;-64
2023/09/02 10:14:41;;;;;;;1.60;1.50;;;20.50;99.90;;;;;;4991064;28;20542;-64
2023/09/02 10:17:09;;;;;;;1.30;1.30;;;20.70;99.90;;;;;;4990658;28;20487;-64
2023/09/02 10:19:36;;;;;;;2.90;1.70;;;20.70;99.90;;;;;;4991297;28;21039;-64
2023/09/02 10:22:04;;;;;;;1.73;1.63;;;20.60;99.90;;;;;;4991173;28;21008;-64
2023/09/02 10:24:34;;;;;;;2.53;1.63;;;20.60;99.90;;;;;;4990781;28;20891;-64
2023/09/02 10:27:03;;;;;;;3.23;1.60;;;20.60;99.90;;;;;;4990232;28;20459;-64
2023/09/02 10:29:37;;;;;;;1.67;1.57;;;20.60;99.90;;;;;;4990751;28;20836;-64
2023/09/02 10:32:10;;;;;;;1.63;1.53;;;20.70;99.90;;;;;;4989447;28;20447;-64
2023/09/02 10:34:43;;;;;;;1.90;1.80;;;20.80;99.90;;;;;;4990617;28;20455;-64
2023/09/02 10:37:14;;;;;;;1.93;1.23;;;20.90;99.90;;;;;;4990353;28;20450;-64
2023/09/02 10:39:49;;;;;;;1.23;1.07;;;21.00;99.90;;;;;;4991221;28;20478;-64
2023/09/02 10:42:17;;;;;;;1.40;1.40;;;21.10;99.90;;;;;;4990805;28;20472;-64
2023/09/02 10:44:46;;;;;;;1.97;1.87;;;21.20;99.90;;;;;;4990006;28;20548;-64
2023/09/02 10:47:13;;;;;;;1.50;1.40;;;21.40;99.90;;;;;;4990199;28;20448;-64
2023/09/02 10:49:41;;;;;;;1.50;1.43;;;21.40;99.90;;;;;;5006812;28;20450;-64
2023/09/02 10:52:09;;;;;;;3.33;2.20;;;21.50;99.90;;;;;;5021939;28;20461;-64
2023/09/02 10:55:02;;;;;;;1.50;1.40;;;21.60;99.90;;;;;;5026997;28;20453;-64
2023/09/02 10:57:29;;;;;;;1.70;1.37;;;21.60;99.90;;;;;;5001560;28;20445;-64
2023/09/02 11:00:16;;;;;;;1.50;1.40;;;21.60;99.90;;;;;;5019252;28;20540;-64
2023/09/02 11:02:44;;;;;;;1.33;1.30;;;21.70;99.90;;;;;;5025095;28;20464;-64
2023/09/02 11:05:11;;;;;;;1.90;1.80;;;21.80;99.90;;;;;;4996552;28;20438;-64
2023/09/02 11:07:39;;;;;;;1.30;1.30;;;21.90;99.90;;;;;;5020934;28;20449;-64
2023/09/02 11:10:08;;;;;;;1.67;1.57;;;21.80;99.90;;;;;;5020756;28;20532;-65
2023/09/02 11:12:35;;;;;;;1.60;1.60;;;21.80;99.90;;;;;;5014013;28;20476;-64
2023/09/02 11:15:17;;;;;;;2.17;1.50;;;21.90;99.90;;;;;;5025202;28;20870;-64
2023/09/02 11:17:43;;;;;;;1.53;1.43;;;22.00;99.90;;;;;;5016968;28;20525;-64
2023/09/02 11:20:13;;;;;;;1.70;1.60;;;22.10;99.90;;;;;;5017662;28;20438;-64
2023/09/02 11:22:51;;;;;;;2.00;1.87;;;22.10;99.90;;;;;;5024479;28;20542;-64
2023/09/02 11:25:28;;;;;;;1.90;1.80;;;22.30;99.90;;;;;;5008444;28;20482;-65
2023/09/02 11:27:56;;;;;;;1.80;1.70;;;22.40;99.90;;;;;;5017585;28;20521;-65
2023/09/02 11:30:25;;;;;;;2.77;2.27;;;22.50;99.90;;;;;;5014684;28;20519;-65
2023/09/02 11:32:52;;;;;;;1.93;1.83;;;22.50;99.90;;;;;;5023025;28;20471;-65
2023/09/02 11:35:25;;;;;;;2.30;2.10;;;22.50;99.90;;;;;;5013271;28;20449;-65
2023/09/02 11:37:51;;;;;;;1.87;1.80;;;22.60;99.90;;;;;;5017969;28;20529;-65
2023/09/02 11:40:20;;;;;;;2.13;2.03;;;22.70;99.90;;;;;;5020977;28;20444;-64
2023/09/02 11:42:49;;;;;;;2.10;1.97;;;22.70;99.90;;;;;;5011442;28;20486;-64
2023/09/02 11:45:15;;;;;;;1.90;1.80;;;22.80;99.90;;;;;;5023860;28;21057;-64
2023/09/02 11:47:44;;;;;;;1.57;1.47;;;22.80;99.90;;;;;;5015098;28;21016;-65
2023/09/02 11:50:15;;;;;;;1.60;1.50;;;22.90;99.90;;;;;;5015953;28;20449;-64
2023/09/02 11:52:42;;;;;;;1.83;1.73;;;22.90;99.90;;;;;;5024045;28;20472;-64
2023/09/02 11:55:11;;;;;;;2.17;2.07;;;23.00;99.90;;;;;;5011135;28;20463;-65
2023/09/02 11:57:38;;;;;;;1.83;1.73;;;23.10;99.90;;;;;;5019898;28;20893;-65
2023/09/02 12:00:07;;;;;;;1.67;1.57;;;23.10;99.90;;;;;;5019102;28;20535;-65
2023/09/02 12:02:35;;;;;;;1.83;1.73;;;23.20;99.90;;;;;;5013216;28;20465;-65
2023/09/02 12:05:04;;;;;;;1.80;1.70;;;23.20;99.90;;;;;;5024505;28;20838;-65
2023/09/02 12:07:32;;;;;;;2.10;2.00;;;23.30;99.90;;;;;;5013718;28;20803;-65
2023/09/02 12:10:06;;;;;;;1.80;1.70;;;23.30;99.90;;;;;;5017927;28;20446;-64
2023/09/02 12:12:34;;;;;;;2.10;2.00;;;23.40;99.90;;;;;;5022779;28;20491;-65
2023/09/02 12:15:02;;;;;;;2.50;2.30;;;23.40;99.90;;;;;;5008225;28;20533;-65
2023/09/02 12:17:29;;;;;;;1.77;1.67;;;23.50;99.90;;;;;;5016115;28;20456;-64
2023/09/02 12:19:56;;;;;;;2.07;1.97;;;23.60;99.90;;;;;;5017824;28;20809;-65
2023/09/02 12:22:24;;;;;;;2.00;1.90;;;23.60;99.90;;;;;;5021135;28;20465;-65
2023/09/02 12:24:51;;;;;;;2.60;2.40;;;23.70;99.90;;;;;;5010879;28;20445;-65
2023/09/02 12:27:18;;;;;;;2.00;1.90;;;23.80;99.90;;;;;;5021841;28;20533;-64
2023/09/02 12:29:55;;;;;;;2.23;2.03;;;23.90;99.90;;;;;;5016097;28;20484;-65
2023/09/02 12:32:22;;;;;;;1.40;1.20;;;23.90;99.90;;;;;;5012328;28;21356;-64
2023/09/02 12:34:48;;;;;;;1.93;1.60;;;24.00;99.90;;;;;;5023660;28;20458;-65
2023/09/02 12:37:17;;;;;;;2.00;1.30;;;24.10;99.90;;;;;;5011353;28;20535;-65
2023/09/02 12:39:45;;;;;;;1.40;1.40;;;24.20;99.90;;;;;;5019574;28;20449;-64
2023/09/02 12:42:17;;;;;;;1.43;1.43;;;24.20;99.90;;;;;;5019367;28;20830;-64
2023/09/02 12:44:54;;;;;;;1.60;1.50;;;24.30;99.90;;;;;;5011918;28;21003;-64
2023/09/02 12:47:23;;;;;;;1.60;1.50;;;24.50;99.90;;;;;;4997295;28;20445;-64
2023/09/02 12:49:53;;;;;;;1.40;1.40;;;24.60;99.90;;;;;;5018412;28;20457;-65
2023/09/02 12:52:22;;;;;;;1.30;1.30;;;24.70;99.90;;;;;;5020510;28;20871;-65